Terminal Aerodrome Forecast
Issued by NWS

Home | Current Version | Previous Version | Text Only | Print | Product List | Glossary On
Versions: 1 2 3 4 5 6 7 8 9 10 11 12 13 14 15 16 17 18
000
FTUS45 KABQ 211700
TAFSAF
TAF
KSAF 211740Z 2118/2218 01005KT P6SM SCT025 BKN050
     FM212000 19008KT P6SM VCSH BKN070
     FM212100 20009KT P6SM VCTS BKN060CB
     FM220100 15006KT P6SM VCSH BKN060
     FM220500 02005KT P6SM FEW030 BKN070=

USA.gov is the U.S. government's official web portal to all federal, state and local government web resources and services.